createdAt,value
2022-12-26T00:02:03.635Z,7.01
2022-12-26T00:04:51.020Z,7.03
2022-12-26T00:07:20.270Z,7.09
2022-12-26T00:09:48.068Z,7.10
2022-12-26T00:12:15.743Z,7.17
2022-12-26T00:14:43.425Z,7.24
2022-12-26T00:17:11.078Z,7.27
2022-12-26T00:19:40.118Z,7.28
2022-12-26T00:22:08.529Z,7.28
2022-12-26T00:24:36.198Z,7.24
2022-12-26T00:27:03.897Z,7.25
2022-12-26T00:29:31.759Z,7.35
2022-12-26T00:31:59.425Z,7.38
2022-12-26T00:34:27.133Z,7.37
2022-12-26T00:36:56.180Z,7.42
2022-12-26T00:39:23.855Z,7.47
2022-12-26T00:41:51.483Z,7.54
2022-12-26T00:44:19.247Z,7.58
2022-12-26T00:46:46.988Z,7.57
2022-12-26T00:49:14.819Z,7.75
2022-12-26T00:51:42.435Z,7.67
2022-12-26T00:54:11.509Z,7.79
2022-12-26T00:56:39.152Z,7.77
2022-12-26T00:59:06.884Z,7.81
2022-12-26T01:01:34.627Z,7.94
2022-12-26T01:04:02.411Z,7.88
2022-12-26T01:06:30.093Z,7.77
2022-12-26T01:08:59.417Z,7.78
2022-12-26T01:11:43.736Z,7.86
2022-12-26T01:14:13.556Z,7.87
2022-12-26T01:16:42.577Z,7.78
2022-12-26T01:19:11.168Z,7.92
2022-12-26T01:21:38.973Z,7.96
2022-12-26T01:24:07.520Z,8.02
2022-12-26T01:26:36.575Z,8.06
2022-12-26T01:29:04.331Z,8.09
2022-12-26T01:31:32.177Z,8.10
2022-12-26T01:33:59.835Z,8.02
2022-12-26T01:36:27.520Z,8.00
2022-12-26T01:38:55.147Z,8.02
2022-12-26T01:41:22.779Z,8.08
2022-12-26T01:43:55.164Z,8.03
2022-12-26T01:46:29.167Z,8.06
2022-12-26T01:48:59.428Z,8.01
2022-12-26T01:51:31.034Z,8.13
2022-12-26T01:54:40.322Z,8.09
2022-12-26T01:56:49.780Z,8.07
2022-12-26T01:59:23.191Z,8.07
2022-12-26T02:01:54.200Z,8.16
2022-12-26T02:04:43.868Z,8.14
2022-12-26T02:07:11.700Z,8.17
2022-12-26T02:09:39.796Z,8.13
2022-12-26T02:12:35.673Z,8.07
2022-12-26T02:15:03.868Z,8.27
2022-12-26T02:17:31.643Z,8.23
2022-12-26T02:20:10.065Z,8.25
2022-12-26T02:22:59.956Z,8.24
2022-12-26T02:25:45.025Z,8.29
2022-12-26T02:28:42.692Z,8.36
2022-12-26T02:31:15.868Z,8.27
2022-12-26T02:34:00.127Z,8.23
2022-12-26T02:36:43.975Z,8.20
2022-12-26T02:39:42.530Z,8.32
2022-12-26T02:42:29.626Z,8.47
2022-12-26T02:45:20.829Z,8.50
2022-12-26T02:47:58.709Z,8.39
2022-12-26T02:50:54.633Z,8.36
2022-12-26T02:53:47.163Z,8.41
2022-12-26T02:56:39.161Z,8.41
2022-12-26T02:59:56.080Z,8.37
2022-12-26T03:02:43.898Z,8.50
2022-12-26T03:05:38.642Z,8.49
2022-12-26T03:08:25.972Z,8.51
2022-12-26T03:11:14.248Z,8.56
2022-12-26T03:13:43.795Z,8.57
2022-12-26T03:16:31.446Z,8.51
2022-12-26T03:19:03.831Z,8.57
2022-12-26T03:21:37.742Z,8.67
2022-12-26T03:24:06.857Z,8.62
2022-12-26T03:26:40.775Z,8.65
2022-12-26T03:29:28.532Z,8.56
2022-12-26T03:31:56.202Z,8.52
2022-12-26T03:34:24.709Z,8.57
2022-12-26T03:37:22.146Z,8.59
2022-12-26T03:40:21.655Z,8.52
2022-12-26T03:43:16.067Z,8.61
2022-12-26T03:46:16.284Z,8.61
2022-12-26T03:49:14.823Z,8.54
2022-12-26T03:52:08.810Z,8.49
2022-12-26T03:55:00.552Z,8.63
2022-12-26T03:57:56.437Z,8.66
2022-12-26T04:00:42.411Z,8.72
2022-12-26T04:03:31.905Z,8.68
2022-12-26T04:06:19.746Z,8.77
2022-12-26T04:09:11.451Z,8.77
2022-12-26T04:12:01.607Z,8.71
2022-12-26T04:15:03.571Z,8.78
2022-12-26T04:17:55.559Z,8.85
2022-12-26T04:20:28.532Z,8.92
2022-12-26T04:23:20.423Z,8.87
2022-12-26T04:26:10.851Z,8.82
2022-12-26T04:28:57.405Z,8.91
2022-12-26T04:31:46.655Z,8.87
2022-12-26T04:34:37.667Z,8.87
2022-12-26T04:37:27.929Z,8.78
2022-12-26T04:40:15.893Z,8.75
2022-12-26T04:43:48.182Z,8.87
2022-12-26T04:45:52.488Z,8.89
2022-12-26T04:48:37.619Z,8.83
2022-12-26T04:51:05.876Z,8.97
2022-12-26T04:53:33.642Z,8.91
2022-12-26T04:56:01.313Z,8.92
2022-12-26T04:58:28.930Z,8.89
2022-12-26T05:01:21.072Z,8.80
2022-12-26T05:04:06.461Z,8.85
2022-12-26T05:06:51.791Z,8.86
2022-12-26T05:09:36.135Z,8.85
2022-12-26T05:12:04.034Z,8.92
2022-12-26T05:14:32.094Z,8.95
2022-12-26T05:17:18.702Z,8.96
2022-12-26T05:20:03.898Z,8.97
2022-12-26T05:22:52.487Z,8.96
2022-12-26T05:25:41.833Z,8.96
2022-12-26T05:28:43.109Z,8.95
2022-12-26T05:31:11.479Z,8.95
2022-12-26T05:33:58.669Z,8.97
2022-12-26T05:36:29.945Z,9.03
2022-12-26T05:38:57.714Z,9.02
2022-12-26T05:41:25.594Z,8.94
2022-12-26T05:43:53.231Z,8.93
2022-12-26T05:46:21.033Z,8.94
2022-12-26T05:48:50.119Z,9.06
2022-12-26T05:51:18.550Z,9.02
2022-12-26T05:53:46.360Z,9.04
2022-12-26T05:56:16.524Z,9.12
2022-12-26T05:58:44.451Z,9.09
2022-12-26T06:01:15.045Z,9.19
2022-12-26T06:03:43.482Z,9.22
2022-12-26T06:06:12.685Z,9.21
2022-12-26T06:08:40.504Z,9.26
2022-12-26T06:11:10.971Z,9.28
2022-12-26T06:13:39.643Z,9.25
2022-12-26T06:16:09.740Z,9.29
2022-12-26T06:18:37.670Z,9.29
2022-12-26T06:21:06.055Z,9.21
2022-12-26T06:23:35.346Z,9.28
2022-12-26T06:26:03.265Z,9.20
2022-12-26T06:28:30.918Z,9.32
2022-12-26T06:31:04.170Z,9.29
2022-12-26T06:33:32.073Z,9.33
2022-12-26T06:36:04.632Z,9.22
2022-12-26T06:38:32.321Z,9.24
2022-12-26T06:41:01.437Z,9.23
2022-12-26T06:43:29.080Z,9.23
2022-12-26T06:45:57.260Z,9.35
2022-12-26T06:48:25.285Z,9.23
2022-12-26T06:50:54.181Z,9.33
2022-12-26T06:53:22.449Z,9.29
2022-12-26T06:55:50.542Z,9.25
2022-12-26T06:58:19.813Z,9.28
2022-12-26T07:00:47.507Z,9.26
2022-12-26T07:03:15.229Z,9.19
2022-12-26T07:05:42.960Z,9.27
2022-12-26T07:08:10.571Z,9.29
2022-12-26T07:10:38.484Z,9.28
2022-12-26T07:13:06.152Z,9.27
2022-12-26T07:15:35.139Z,9.21
2022-12-26T07:18:02.825Z,9.25
2022-12-26T07:20:30.553Z,9.32
2022-12-26T07:22:58.296Z,9.22
2022-12-26T07:25:25.999Z,9.29
2022-12-26T07:27:54.871Z,9.28
2022-12-26T07:30:22.586Z,9.21
2022-12-26T07:32:51.628Z,9.27
2022-12-26T07:35:19.341Z,9.29
2022-12-26T07:37:47.089Z,9.33
2022-12-26T07:40:14.929Z,9.31
2022-12-26T07:42:42.595Z,9.19
2022-12-26T07:45:10.893Z,9.20
2022-12-26T07:47:38.611Z,9.27
2022-12-26T07:50:08.819Z,9.22
2022-12-26T07:52:36.486Z,9.26
2022-12-26T07:55:05.096Z,9.19
2022-12-26T07:57:49.345Z,9.35
2022-12-26T08:00:19.000Z,9.31
2022-12-26T08:02:49.470Z,9.30
2022-12-26T08:05:20.740Z,9.32
2022-12-26T08:07:48.845Z,9.31
2022-12-26T08:10:16.688Z,9.26
2022-12-26T08:12:44.823Z,9.21
2022-12-26T08:15:13.674Z,9.13
2022-12-26T08:17:41.405Z,9.16
2022-12-26T08:20:09.952Z,9.17
2022-12-26T08:22:38.959Z,9.26
2022-12-26T08:25:07.843Z,9.19
2022-12-26T08:27:35.519Z,9.27
2022-12-26T08:30:03.337Z,9.23
2022-12-26T08:32:31.036Z,9.26
2022-12-26T08:35:04.960Z,9.28
2022-12-26T08:37:32.628Z,9.32
2022-12-26T08:40:01.694Z,9.40
2022-12-26T08:42:29.525Z,9.33
2022-12-26T08:44:57.197Z,9.32
2022-12-26T08:47:26.533Z,9.45
2022-12-26T08:49:54.322Z,9.46
2022-12-26T08:52:22.073Z,9.51
2022-12-26T08:54:49.782Z,9.44
2022-12-26T08:57:18.891Z,9.47
2022-12-26T08:59:46.537Z,9.48
2022-12-26T09:02:14.398Z,9.53
2022-12-26T09:04:42.158Z,9.46
2022-12-26T09:07:10.405Z,9.47
2022-12-26T09:09:38.178Z,9.47
2022-12-26T09:12:06.290Z,9.46
2022-12-26T09:14:35.379Z,9.45
2022-12-26T09:17:03.369Z,9.46
2022-12-26T09:19:32.377Z,9.48
2022-12-26T09:22:14.184Z,9.55
2022-12-26T09:24:41.986Z,9.46
2022-12-26T09:27:09.709Z,9.48
2022-12-26T09:29:39.235Z,9.55
2022-12-26T09:32:07.016Z,9.52
2022-12-26T09:34:34.733Z,9.46
2022-12-26T09:37:02.373Z,9.47
2022-12-26T09:39:30.062Z,9.49
2022-12-26T09:42:07.014Z,9.54
2022-12-26T09:44:48.765Z,9.56
2022-12-26T09:47:31.943Z,9.46
2022-12-26T09:50:06.110Z,9.47
2022-12-26T09:52:41.532Z,9.52
2022-12-26T09:55:26.149Z,9.55
2022-12-26T09:57:57.223Z,9.46
2022-12-26T10:00:29.914Z,9.41
2022-12-26T10:02:59.806Z,9.50
2022-12-26T10:05:35.274Z,9.58
2022-12-26T10:08:22.528Z,9.43
2022-12-26T10:10:58.461Z,9.46
2022-12-26T10:13:34.945Z,9.63
2022-12-26T10:16:09.810Z,9.60
2022-12-26T10:18:52.355Z,9.59
2022-12-26T10:21:35.166Z,9.68
2022-12-26T10:24:08.475Z,9.69
2022-12-26T10:26:40.517Z,9.66
2022-12-26T10:29:17.450Z,9.71
2022-12-26T10:31:50.636Z,9.71
2022-12-26T10:34:21.218Z,9.65
2022-12-26T10:36:50.050Z,9.65
2022-12-26T10:39:24.097Z,9.72
2022-12-26T10:41:54.227Z,9.65
2022-12-26T10:44:27.564Z,9.71
2022-12-26T10:47:23.165Z,9.67
2022-12-26T10:49:50.918Z,9.66
2022-12-26T10:52:22.333Z,9.64
2022-12-26T10:55:29.541Z,9.59
2022-12-26T10:57:45.070Z,9.61
2022-12-26T11:00:20.213Z,9.66
2022-12-26T11:03:04.383Z,9.63
2022-12-26T11:06:06.552Z,9.64
2022-12-26T11:08:28.040Z,9.54
2022-12-26T11:11:05.581Z,9.61
2022-12-26T11:13:38.266Z,9.61
2022-12-26T11:16:07.097Z,9.61
2022-12-26T11:18:39.627Z,9.56
2022-12-26T11:21:15.300Z,9.54
2022-12-26T11:23:42.960Z,9.44
2022-12-26T11:26:22.155Z,9.45
2022-12-26T11:29:06.817Z,9.47
2022-12-26T11:31:34.736Z,9.38
2022-12-26T11:34:09.718Z,9.48
2022-12-26T11:36:40.403Z,9.41
2022-12-26T11:39:23.854Z,9.36
2022-12-26T11:41:52.797Z,9.42
2022-12-26T11:44:24.871Z,9.44
2022-12-26T11:46:56.421Z,9.43
2022-12-26T11:49:30.956Z,9.43
2022-12-26T11:52:00.357Z,9.33
2022-12-26T11:54:31.813Z,9.31
2022-12-26T11:57:16.260Z,9.39
2022-12-26T11:59:44.208Z,9.28
2022-12-26T12:02:27.289Z,9.30
2022-12-26T12:05:02.494Z,9.42
2022-12-26T12:07:53.911Z,9.41
2022-12-26T12:10:55.219Z,9.40
2022-12-26T12:13:43.215Z,9.37
2022-12-26T12:16:30.143Z,9.40
2022-12-26T12:19:06.559Z,9.32
2022-12-26T12:21:44.341Z,9.29
2022-12-26T12:24:28.121Z,9.44
2022-12-26T12:27:05.311Z,9.47
2022-12-26T12:30:04.641Z,9.39
2022-12-26T12:32:40.686Z,9.42
2022-12-26T12:35:28.762Z,9.37
2022-12-26T12:38:14.876Z,9.40
2022-12-26T12:40:51.566Z,9.40
2022-12-26T12:43:25.391Z,9.44
2022-12-26T12:46:06.709Z,9.40
2022-12-26T12:48:56.793Z,9.39
2022-12-26T12:51:31.725Z,9.28
2022-12-26T12:54:34.466Z,9.21
2022-12-26T12:57:11.123Z,9.33
2022-12-26T12:59:50.613Z,9.39
2022-12-26T13:02:24.454Z,9.45
2022-12-26T13:04:57.459Z,9.37
2022-12-26T13:07:31.451Z,9.42
2022-12-26T13:10:03.085Z,9.39
2022-12-26T13:12:37.238Z,9.37
2022-12-26T13:15:09.939Z,9.46
2022-12-26T13:17:45.118Z,9.42
2022-12-26T13:20:18.200Z,9.39
2022-12-26T13:23:06.606Z,9.37
2022-12-26T13:25:40.436Z,9.50
2022-12-26T13:28:16.590Z,9.51
2022-12-26T13:30:44.286Z,9.41
2022-12-26T13:33:15.807Z,9.39
2022-12-26T13:35:55.590Z,9.40
2022-12-26T13:38:24.849Z,9.32
2022-12-26T13:41:19.665Z,9.46
2022-12-26T13:44:00.773Z,9.39
2022-12-26T13:46:55.499Z,9.43
2022-12-26T13:49:36.937Z,9.47
2022-12-26T13:52:32.229Z,9.35
2022-12-26T13:55:30.638Z,9.38
2022-12-26T13:58:23.548Z,9.32
2022-12-26T14:00:53.490Z,9.33
2022-12-26T14:03:36.394Z,9.42
2022-12-26T14:06:22.491Z,9.32
2022-12-26T14:09:06.981Z,9.35
2022-12-26T14:11:46.751Z,9.28
2022-12-26T14:14:27.875Z,9.22
2022-12-26T14:17:02.956Z,9.25
2022-12-26T14:19:42.826Z,9.24
2022-12-26T14:22:18.164Z,9.20
2022-12-26T14:24:58.244Z,9.18
2022-12-26T14:27:33.947Z,9.12
2022-12-26T14:30:20.056Z,9.23
2022-12-26T14:33:01.635Z,9.09
2022-12-26T14:35:34.383Z,9.12
2022-12-26T14:38:19.766Z,9.11
2022-12-26T14:41:01.235Z,9.13
2022-12-26T14:43:35.311Z,9.03
2022-12-26T14:46:09.221Z,8.98
2022-12-26T14:48:46.857Z,8.91
2022-12-26T14:51:37.907Z,8.92
2022-12-26T14:54:50.851Z,8.87
2022-12-26T14:57:52.394Z,8.82
2022-12-26T15:00:34.606Z,8.82
2022-12-26T15:03:27.347Z,8.83
2022-12-26T15:06:04.541Z,8.72
2022-12-26T15:09:03.419Z,8.71
2022-12-26T15:11:58.957Z,8.79
2022-12-26T15:14:57.204Z,8.81
2022-12-26T15:17:35.819Z,8.81
2022-12-26T15:20:28.304Z,8.82
2022-12-26T15:23:15.679Z,8.82
2022-12-26T15:26:16.059Z,8.91
2022-12-26T15:29:16.415Z,8.85
2022-12-26T15:31:56.803Z,8.97
2022-12-26T15:34:48.817Z,8.80
2022-12-26T15:37:33.156Z,8.87
2022-12-26T15:40:11.549Z,8.84
2022-12-26T15:43:06.588Z,8.86
2022-12-26T15:45:46.003Z,8.76
2022-12-26T15:48:27.546Z,8.72
2022-12-26T15:51:02.262Z,8.71
2022-12-26T15:53:41.467Z,8.71
2022-12-26T15:56:25.702Z,8.60
2022-12-26T15:59:29.964Z,8.59
2022-12-26T16:01:58.494Z,8.57
2022-12-26T16:04:31.195Z,8.54
2022-12-26T16:07:10.233Z,8.57
2022-12-26T16:09:44.597Z,8.54
2022-12-26T16:12:25.404Z,8.58
2022-12-26T16:15:03.266Z,8.49
2022-12-26T16:17:31.376Z,8.47
2022-12-26T16:19:59.061Z,8.51
2022-12-26T16:22:44.840Z,8.46
2022-12-26T16:25:17.963Z,8.48
2022-12-26T16:27:47.449Z,8.44
2022-12-26T16:30:18.865Z,8.46
2022-12-26T16:32:47.343Z,8.39
2022-12-26T16:35:21.552Z,8.35
2022-12-26T16:37:50.957Z,8.37
2022-12-26T16:40:24.101Z,8.43
2022-12-26T16:43:03.717Z,8.31
2022-12-26T16:45:35.041Z,8.31
2022-12-26T16:48:06.117Z,8.36
2022-12-26T16:50:37.440Z,8.36
2022-12-26T16:53:11.735Z,8.42
2022-12-26T16:55:44.534Z,8.39
2022-12-26T16:58:22.586Z,8.41
2022-12-26T17:01:01.642Z,8.53
2022-12-26T17:03:39.711Z,8.46
2022-12-26T17:06:10.826Z,8.57
2022-12-26T17:08:44.025Z,8.54
2022-12-26T17:11:13.324Z,8.66
2022-12-26T17:13:42.042Z,8.77
2022-12-26T17:16:11.271Z,8.72
2022-12-26T17:18:50.725Z,8.69
2022-12-26T17:21:24.198Z,8.81
2022-12-26T17:24:06.053Z,8.78
2022-12-26T17:26:36.911Z,8.78
2022-12-26T17:29:05.357Z,8.80
2022-12-26T17:31:36.715Z,8.82
2022-12-26T17:34:09.138Z,8.81
2022-12-26T17:39:27.660Z,8.75
2022-12-26T17:41:59.014Z,8.78
2022-12-26T17:44:37.373Z,8.81
2022-12-26T17:47:15.778Z,8.80
2022-12-26T17:49:43.787Z,8.66
2022-12-26T17:52:12.962Z,8.69
2022-12-26T17:54:40.731Z,8.69
2022-12-26T17:57:17.862Z,8.66
2022-12-26T17:59:45.655Z,8.55
2022-12-26T18:02:13.512Z,8.56
2022-12-26T18:04:41.489Z,8.54
2022-12-26T18:07:13.566Z,8.52
2022-12-26T18:09:41.262Z,8.66
2022-12-26T18:12:13.271Z,8.54
2022-12-26T18:14:40.961Z,8.41
2022-12-26T18:17:09.364Z,8.45
2022-12-26T18:19:37.108Z,8.41
2022-12-26T18:22:04.765Z,8.30
2022-12-26T18:24:32.410Z,8.39
2022-12-26T18:27:00.155Z,8.44
2022-12-26T18:29:29.202Z,8.32
2022-12-26T18:31:56.929Z,8.27
2022-12-26T18:34:24.607Z,8.26
2022-12-26T18:36:52.299Z,8.29
2022-12-26T18:39:19.969Z,8.17
2022-12-26T18:41:47.598Z,8.08
2022-12-26T18:44:16.370Z,8.11
2022-12-26T18:46:45.709Z,8.09
2022-12-26T18:49:13.441Z,8.00
2022-12-26T18:51:41.138Z,7.90
2022-12-26T18:54:08.813Z,7.97
2022-12-26T18:56:36.392Z,8.02
2022-12-26T18:59:04.118Z,8.08
2022-12-26T19:01:31.863Z,7.93
2022-12-26T19:04:01.066Z,7.95
2022-12-26T19:06:32.897Z,7.88
2022-12-26T19:09:00.500Z,7.79
2022-12-26T19:11:28.478Z,7.74
2022-12-26T19:13:56.196Z,7.69
2022-12-26T19:16:24.133Z,7.72
2022-12-26T19:18:52.089Z,7.62
2022-12-26T19:21:22.302Z,7.60
2022-12-26T19:23:49.965Z,7.50
2022-12-26T19:26:19.895Z,7.59
2022-12-26T19:28:52.138Z,7.49
2022-12-26T19:31:20.755Z,7.52
2022-12-26T19:33:48.534Z,7.49
2022-12-26T19:36:16.382Z,7.45
2022-12-26T19:38:45.583Z,7.40
2022-12-26T19:41:14.501Z,7.40
2022-12-26T19:43:42.286Z,7.32
2022-12-26T19:46:12.246Z,7.35
2022-12-26T19:48:40.910Z,7.36
2022-12-26T19:51:11.133Z,7.32
2022-12-26T19:53:39.725Z,7.26
2022-12-26T19:56:09.704Z,7.32
2022-12-26T19:58:37.406Z,7.23
2022-12-26T20:01:09.838Z,7.25
2022-12-26T20:03:38.260Z,7.15
2022-12-26T20:06:10.446Z,7.09
2022-12-26T20:08:38.386Z,7.09
2022-12-26T20:11:07.447Z,7.15
2022-12-26T20:13:37.022Z,7.08
2022-12-26T20:16:11.306Z,7.06
2022-12-26T20:18:46.769Z,6.96
2022-12-26T20:21:15.481Z,6.91
2022-12-26T20:23:43.981Z,6.84
2022-12-26T20:26:15.124Z,6.88
2022-12-26T20:28:44.343Z,6.81
2022-12-26T20:31:14.603Z,6.80
2022-12-26T20:33:44.729Z,6.81
2022-12-26T20:36:14.921Z,6.77
2022-12-26T20:38:43.626Z,6.68
2022-12-26T20:41:12.253Z,6.81
2022-12-26T20:43:40.904Z,6.65
2022-12-26T20:46:13.291Z,6.68
2022-12-26T20:48:41.555Z,6.66
2022-12-26T20:51:13.369Z,6.67
2022-12-26T20:53:41.116Z,6.63
2022-12-26T20:56:09.649Z,6.57
2022-12-26T20:58:38.322Z,6.49
2022-12-26T21:01:08.757Z,6.44
2022-12-26T21:03:38.732Z,6.42
2022-12-26T21:06:08.072Z,6.53
2022-12-26T21:08:36.367Z,6.57
2022-12-26T21:11:08.958Z,6.43
2022-12-26T21:13:37.425Z,6.37
2022-12-26T21:16:10.261Z,6.39
2022-12-26T21:18:39.883Z,6.32
2022-12-26T21:21:09.733Z,6.35
2022-12-26T21:23:37.839Z,6.31
2022-12-26T21:26:06.238Z,6.29
2022-12-26T21:28:34.949Z,6.32
2022-12-26T21:31:03.128Z,6.27
2022-12-26T21:33:31.009Z,6.28
2022-12-26T21:36:00.035Z,6.15
2022-12-26T21:38:30.473Z,6.15
2022-12-26T21:40:58.777Z,6.01
2022-12-26T21:43:30.440Z,6.02
2022-12-26T21:46:01.334Z,5.99
2022-12-26T21:48:29.232Z,5.92
2022-12-26T21:50:56.855Z,5.84
2022-12-26T21:53:25.975Z,5.79
2022-12-26T21:55:52.655Z,5.81
2022-12-26T21:58:20.377Z,5.79
2022-12-26T22:00:48.043Z,5.86
2022-12-26T22:03:33.038Z,5.86
2022-12-26T22:06:00.694Z,5.81
2022-12-26T22:08:29.860Z,5.68
2022-12-26T22:11:14.928Z,5.72
2022-12-26T22:13:45.482Z,5.84
2022-12-26T22:16:13.557Z,5.85
2022-12-26T22:18:43.275Z,5.72
2022-12-26T22:21:13.074Z,5.75
2022-12-26T22:23:43.357Z,5.57
2022-12-26T22:26:13.159Z,5.57
2022-12-26T22:28:41.537Z,5.66
2022-12-26T22:31:09.872Z,5.76
2022-12-26T22:33:37.593Z,5.57
2022-12-26T22:36:06.793Z,5.69
2022-12-26T22:38:34.566Z,5.58
2022-12-26T22:41:03.858Z,5.55
2022-12-26T22:43:32.275Z,5.57
2022-12-26T22:46:00.283Z,5.53
2022-12-26T22:48:28.131Z,5.50
2022-12-26T22:50:56.992Z,5.53
2022-12-26T22:53:26.416Z,5.49
2022-12-26T22:55:58.851Z,5.47
2022-12-26T22:58:29.053Z,5.59
2022-12-26T23:00:57.259Z,5.48
2022-12-26T23:03:26.610Z,5.46
2022-12-26T23:05:55.309Z,5.49
2022-12-26T23:08:26.221Z,5.45
2022-12-26T23:10:55.542Z,5.54
2022-12-26T23:13:24.186Z,5.58
2022-12-26T23:15:58.374Z,5.55
2022-12-26T23:18:51.911Z,5.48
2022-12-26T23:21:45.001Z,5.48
2022-12-26T23:24:17.709Z,5.40
2022-12-26T23:26:47.278Z,5.36
2022-12-26T23:29:34.011Z,5.42
2022-12-26T23:32:03.319Z,5.39
2022-12-26T23:34:31.252Z,5.40
2022-12-26T23:36:58.900Z,5.43
2022-12-26T23:39:26.822Z,5.43
2022-12-26T23:41:54.467Z,5.44
2022-12-26T23:44:22.138Z,5.35
2022-12-26T23:46:49.934Z,5.37
2022-12-26T23:49:19.069Z,5.48
2022-12-26T23:51:46.736Z,5.40
2022-12-26T23:54:14.474Z,5.30
2022-12-26T23:56:42.148Z,5.26
2022-12-26T23:59:09.886Z,5.24
